createdAt,value
2019-01-04T00:00:31.398Z,3.2
2019-01-04T00:01:24.286Z,3.2
2019-01-04T00:02:17.225Z,3.2
2019-01-04T00:03:10.138Z,3.2
2019-01-04T00:04:03.086Z,3.2
2019-01-04T00:04:55.953Z,3.1
2019-01-04T00:05:48.907Z,3.2
2019-01-04T00:06:41.825Z,3.2
2019-01-04T00:07:34.768Z,3.2
2019-01-04T00:08:27.645Z,3.2
2019-01-04T00:09:20.595Z,3.2
2019-01-04T00:10:13.485Z,3.2
2019-01-04T00:11:06.437Z,3.1
2019-01-04T00:11:59.313Z,3.2
2019-01-04T00:12:52.209Z,3.2
2019-01-04T00:13:45.191Z,3.1
2019-01-04T00:14:38.198Z,3
2019-01-04T00:15:31.110Z,3.1
2019-01-04T00:16:24.039Z,3.1
2019-01-04T00:17:16.935Z,3.1
2019-01-04T00:18:09.863Z,3
2019-01-04T00:19:02.786Z,3.1
2019-01-04T00:19:55.735Z,3.1
2019-01-04T00:20:48.671Z,3.1
2019-01-04T00:21:41.659Z,3.1
2019-01-04T00:22:34.642Z,3.1
2019-01-04T00:23:27.550Z,3.1
2019-01-04T00:24:20.476Z,3.1
2019-01-04T00:25:13.390Z,3.1
2019-01-04T00:26:06.279Z,3
2019-01-04T00:26:59.250Z,3.1
2019-01-04T00:27:52.217Z,3
2019-01-04T00:28:45.075Z,3.1
2019-01-04T00:29:38.155Z,3.1
2019-01-04T00:30:31.062Z,3
2019-01-04T00:31:23.954Z,3
2019-01-04T00:32:16.984Z,3
2019-01-04T00:33:09.866Z,3
2019-01-04T00:34:02.740Z,2.9
2019-01-04T00:34:55.701Z,3
2019-01-04T00:35:48.579Z,3
2019-01-04T00:36:41.480Z,3
2019-01-04T00:37:34.418Z,3
2019-01-04T00:38:27.325Z,3
2019-01-04T00:39:20.265Z,2.9
2019-01-04T00:40:13.155Z,2.9
2019-01-04T00:41:06.096Z,3
2019-01-04T00:41:58.975Z,3
2019-01-04T00:42:51.854Z,3
2019-01-04T00:43:44.739Z,3
2019-01-04T00:44:37.794Z,3
2019-01-04T00:45:30.685Z,3
2019-01-04T00:46:23.609Z,2.9
2019-01-04T00:47:16.494Z,3
2019-01-04T00:48:09.498Z,2.9
2019-01-04T00:49:02.444Z,2.9
2019-01-04T00:49:55.388Z,2.9
2019-01-04T00:50:48.338Z,2.9
2019-01-04T00:51:41.203Z,2.9
2019-01-04T00:52:34.091Z,2.9
2019-01-04T00:53:26.970Z,2.9
2019-01-04T00:54:19.926Z,2.9
2019-01-04T00:55:12.808Z,2.9
2019-01-04T00:56:05.783Z,2.9
2019-01-04T00:56:58.739Z,2.9
2019-01-04T00:57:51.704Z,2.9
2019-01-04T00:58:44.647Z,2.9
2019-01-04T00:59:37.576Z,2.8
2019-01-04T01:00:30.492Z,2.9
2019-01-04T01:01:23.435Z,2.8
2019-01-04T01:02:16.405Z,2.8
2019-01-04T01:03:09.384Z,2.8
2019-01-04T01:04:02.244Z,2.8
2019-01-04T01:04:55.132Z,2.9
2019-01-04T01:05:48.046Z,2.7
2019-01-04T01:06:40.952Z,2.9
2019-01-04T01:07:33.946Z,2.8
2019-01-04T01:08:26.812Z,2.8
2019-01-04T01:09:19.697Z,2.9
2019-01-04T01:10:12.584Z,2.8
2019-01-04T01:11:05.449Z,2.8
2019-01-04T01:11:58.360Z,2.9
2019-01-04T01:12:51.300Z,2.8
2019-01-04T01:13:44.254Z,2.8
2019-01-04T01:14:37.150Z,2.8
2019-01-04T01:15:30.104Z,2.8
2019-01-04T01:16:23.004Z,2.8
2019-01-04T01:17:16.443Z,2.8
2019-01-04T01:18:09.362Z,2.8
2019-01-04T01:19:03.782Z,2.8
2019-01-04T01:19:56.671Z,2.9
2019-01-04T01:20:49.572Z,2.8
2019-01-04T01:21:42.504Z,2.8
2019-01-04T01:22:35.408Z,2.8
2019-01-04T01:23:28.344Z,2.8
2019-01-04T01:24:21.535Z,2.9
2019-01-04T01:25:14.439Z,2.9
2019-01-04T01:26:07.380Z,2.8
2019-01-04T01:27:00.252Z,2.8
2019-01-04T01:27:53.172Z,2.8
2019-01-04T01:28:46.115Z,2.8
2019-01-04T01:29:39.056Z,2.9
2019-01-04T01:30:31.937Z,2.8
2019-01-04T01:31:24.857Z,2.8
2019-01-04T01:32:17.774Z,2.9
2019-01-04T01:33:10.680Z,2.8
2019-01-04T01:34:03.641Z,2.9
2019-01-04T01:34:56.746Z,2.8
2019-01-04T01:35:49.611Z,2.9
2019-01-04T01:36:42.500Z,2.8
2019-01-04T01:37:35.382Z,2.9
2019-01-04T01:38:28.286Z,2.8
2019-01-04T01:39:21.117Z,2.8
2019-01-04T01:40:14.016Z,2.9
2019-01-04T01:41:06.893Z,2.9
2019-01-04T01:42:00.021Z,2.8
2019-01-04T01:42:52.921Z,2.8
2019-01-04T01:43:46.038Z,2.8
2019-01-04T01:44:38.991Z,2.9
2019-01-04T01:45:31.946Z,2.9
2019-01-04T01:46:24.814Z,2.9
2019-01-04T01:47:17.696Z,2.8
2019-01-04T01:48:10.610Z,2.8
2019-01-04T01:49:03.559Z,2.8
2019-01-04T01:49:56.505Z,2.8
2019-01-04T01:50:49.486Z,2.9
2019-01-04T01:51:42.416Z,2.9
2019-01-04T01:52:35.334Z,2.9
2019-01-04T01:53:28.248Z,2.9
2019-01-04T01:54:21.166Z,2.9
2019-01-04T01:55:14.103Z,2.9
2019-01-04T01:56:07.046Z,2.7
2019-01-04T01:57:00.017Z,2.8
2019-01-04T01:57:52.881Z,2.8
2019-01-04T01:58:45.821Z,2.9
2019-01-04T01:59:38.760Z,2.9
2019-01-04T02:00:31.739Z,2.9
2019-01-04T02:01:24.657Z,2.8
2019-01-04T02:02:17.551Z,2.8
2019-01-04T02:03:10.454Z,2.8
2019-01-04T02:04:03.365Z,2.9
2019-01-04T02:04:56.357Z,2.9
2019-01-04T02:05:49.365Z,2.9
2019-01-04T02:06:42.420Z,2.9
2019-01-04T02:07:35.464Z,2.9
2019-01-04T02:08:28.436Z,2.9
2019-01-04T02:09:21.310Z,2.9
2019-01-04T02:10:14.287Z,2.8
2019-01-04T02:11:07.284Z,2.8
2019-01-04T02:12:00.357Z,2.9
2019-01-04T02:12:53.211Z,2.9
2019-01-04T02:13:46.108Z,2.9
2019-01-04T02:14:38.981Z,2.9
2019-01-04T02:15:31.962Z,2.9
2019-01-04T02:16:24.888Z,2.9
2019-01-04T02:17:17.990Z,2.9
2019-01-04T02:18:10.905Z,2.9
2019-01-04T02:19:03.776Z,2.8
2019-01-04T02:19:56.684Z,2.8
2019-01-04T02:20:49.555Z,2.9
2019-01-04T02:21:42.498Z,2.9
2019-01-04T02:22:35.405Z,2.8
2019-01-04T02:23:28.240Z,2.9
2019-01-04T02:24:21.182Z,2.8
2019-01-04T02:25:14.096Z,2.9
2019-01-04T02:26:07.003Z,2.9
2019-01-04T02:26:59.932Z,2.8
2019-01-04T02:27:52.894Z,2.9
2019-01-04T02:28:45.853Z,2.9
2019-01-04T02:29:38.756Z,2.9
2019-01-04T02:30:31.705Z,2.9
2019-01-04T02:31:24.685Z,2.9
2019-01-04T02:32:17.629Z,2.9
2019-01-04T02:33:10.625Z,2.9
2019-01-04T02:34:03.634Z,2.8
2019-01-04T02:34:56.521Z,2.8
2019-01-04T02:35:49.395Z,2.9
2019-01-04T02:36:42.363Z,2.9
2019-01-04T02:37:35.308Z,2.9
2019-01-04T02:38:28.198Z,2.9
2019-01-04T02:39:21.133Z,2.9
2019-01-04T02:40:14.128Z,2.9
2019-01-04T02:41:07.057Z,2.9
2019-01-04T02:42:00.047Z,2.9
2019-01-04T02:42:52.964Z,2.9
2019-01-04T02:43:45.863Z,2.9
2019-01-04T02:44:38.801Z,2.9
2019-01-04T02:45:31.726Z,2.9
2019-01-04T02:46:24.572Z,2.9
2019-01-04T02:47:17.568Z,2.9
2019-01-04T02:48:10.504Z,2.9
2019-01-04T02:49:03.460Z,2.9
2019-01-04T02:49:56.345Z,2.9
2019-01-04T02:50:49.210Z,2.9
2019-01-04T02:51:42.256Z,2.9
2019-01-04T02:52:35.144Z,2.9
2019-01-04T02:53:28.008Z,2.9
2019-01-04T02:54:20.895Z,2.8
2019-01-04T02:55:13.773Z,2.9
2019-01-04T02:56:06.725Z,2.9
2019-01-04T02:56:59.616Z,2.9
2019-01-04T02:57:52.636Z,2.9
2019-01-04T02:58:45.537Z,2.9
2019-01-04T02:59:38.420Z,2.9
2019-01-04T03:00:31.357Z,2.9
2019-01-04T03:01:24.266Z,2.9
2019-01-04T03:02:17.218Z,2.9
2019-01-04T03:03:10.189Z,2.8
2019-01-04T03:04:03.148Z,3
2019-01-04T03:04:56.107Z,2.9
2019-01-04T03:05:49.133Z,2.9
2019-01-04T03:06:42.133Z,2.9
2019-01-04T03:07:35.053Z,2.9
2019-01-04T03:08:27.962Z,2.9
2019-01-04T03:09:20.809Z,2.9
2019-01-04T03:10:13.691Z,2.9
2019-01-04T03:11:06.570Z,2.9
2019-01-04T03:11:59.457Z,2.9
2019-01-04T03:12:52.350Z,3
2019-01-04T03:13:45.412Z,3
2019-01-04T03:14:38.343Z,3
2019-01-04T03:15:31.247Z,2.9
2019-01-04T03:16:24.202Z,3
2019-01-04T03:17:17.085Z,3
2019-01-04T03:18:10.065Z,3
2019-01-04T03:19:02.999Z,3
2019-01-04T03:19:55.863Z,3
2019-01-04T03:20:48.733Z,3
2019-01-04T03:21:41.688Z,3
2019-01-04T03:22:34.680Z,3
2019-01-04T03:23:27.612Z,3
2019-01-04T03:24:20.530Z,3
2019-01-04T03:25:13.466Z,3
2019-01-04T03:26:06.348Z,3
2019-01-04T03:26:59.300Z,3
2019-01-04T03:27:52.356Z,3
2019-01-04T03:28:45.297Z,3
2019-01-04T03:29:38.192Z,3
2019-01-04T03:30:31.168Z,3
2019-01-04T03:31:24.193Z,3
2019-01-04T03:32:17.266Z,3
2019-01-04T03:33:10.266Z,3
2019-01-04T03:34:03.210Z,2.9
2019-01-04T03:34:56.126Z,3
2019-01-04T03:35:49.059Z,3
2019-01-04T03:36:41.952Z,3
2019-01-04T03:37:34.885Z,3
2019-01-04T03:38:27.817Z,3
2019-01-04T03:39:20.743Z,3
2019-01-04T03:40:13.640Z,3
2019-01-04T03:41:06.583Z,3
2019-01-04T03:41:59.455Z,2.9
2019-01-04T03:42:52.344Z,3
2019-01-04T03:43:45.283Z,3
2019-01-04T03:44:38.204Z,2.9
2019-01-04T03:45:31.171Z,3
2019-01-04T03:46:24.090Z,3.1
2019-01-04T03:47:16.973Z,3
2019-01-04T03:48:09.856Z,3
2019-01-04T03:49:02.922Z,3
2019-01-04T03:49:55.857Z,3
2019-01-04T03:50:49.074Z,3
2019-01-04T03:51:42.086Z,3
2019-01-04T03:52:34.994Z,3
2019-01-04T03:53:27.876Z,3
2019-01-04T03:54:20.816Z,3
2019-01-04T03:55:13.777Z,3
2019-01-04T03:56:11.726Z,3
2019-01-04T03:57:04.660Z,3
2019-01-04T03:57:57.532Z,3
2019-01-04T03:58:50.459Z,3
2019-01-04T03:59:43.491Z,3
2019-01-04T04:00:36.431Z,3
2019-01-04T04:01:29.410Z,3
2019-01-04T04:02:22.418Z,3
2019-01-04T04:03:15.314Z,3
2019-01-04T04:04:08.252Z,3
2019-01-04T04:05:01.219Z,3
2019-01-04T04:05:54.169Z,3
2019-01-04T04:06:47.162Z,3
2019-01-04T04:07:40.266Z,3
2019-01-04T04:08:33.212Z,3
2019-01-04T04:09:26.089Z,3
2019-01-04T04:10:19.002Z,3
2019-01-04T04:11:11.864Z,3
2019-01-04T04:12:04.800Z,2.9
2019-01-04T04:12:57.782Z,2.9
2019-01-04T04:13:50.660Z,2.9
2019-01-04T04:14:43.604Z,2.9
2019-01-04T04:15:36.509Z,2.9
2019-01-04T04:16:29.470Z,3
2019-01-04T04:17:22.362Z,2.9
2019-01-04T04:18:15.308Z,2.9
2019-01-04T04:19:08.275Z,2.9
2019-01-04T04:20:01.215Z,2.8
2019-01-04T04:20:54.206Z,2.9
2019-01-04T04:21:47.207Z,2.9
2019-01-04T04:22:40.118Z,2.9
2019-01-04T04:23:33.148Z,2.8
2019-01-04T04:24:26.180Z,2.8
2019-01-04T04:25:19.122Z,2.8
2019-01-04T04:26:12.027Z,2.7
2019-01-04T04:27:04.983Z,2.8
2019-01-04T04:27:57.974Z,2.8
2019-01-04T04:28:50.899Z,2.7
2019-01-04T04:29:43.795Z,2.8
2019-01-04T04:30:36.740Z,2.8
2019-01-04T04:31:29.647Z,2.7
2019-01-04T04:32:22.602Z,2.7
2019-01-04T04:33:15.564Z,2.7
2019-01-04T04:34:08.592Z,2.7
2019-01-04T04:35:01.439Z,2.6
2019-01-04T04:35:54.344Z,2.7
2019-01-04T04:36:47.215Z,2.7
2019-01-04T04:37:40.107Z,2.7
2019-01-04T04:38:33.081Z,2.7
2019-01-04T04:39:26.035Z,2.6
2019-01-04T04:40:19.114Z,2.6
2019-01-04T04:41:12.025Z,2.7
2019-01-04T04:42:04.921Z,2.5
2019-01-04T04:42:57.858Z,2.6
2019-01-04T04:43:50.764Z,2.6
2019-01-04T04:44:43.786Z,2.6
2019-01-04T04:45:36.751Z,2.6
2019-01-04T04:46:29.688Z,2.6
2019-01-04T04:47:22.569Z,2.6
2019-01-04T04:48:15.520Z,2.6
2019-01-04T04:49:08.427Z,2.6
2019-01-04T04:50:01.301Z,2.5
2019-01-04T04:50:54.329Z,2.5
2019-01-04T04:51:47.212Z,2.5
2019-01-04T04:52:40.116Z,2.5
2019-01-04T04:53:33.045Z,2.5
2019-01-04T04:54:27.578Z,2.5
2019-01-04T04:55:20.500Z,2.5
2019-01-04T04:56:13.393Z,2.4
2019-01-04T04:57:06.326Z,2.4
2019-01-04T04:57:59.218Z,2.4
2019-01-04T04:58:52.168Z,2.4
2019-01-04T04:59:45.198Z,2.4
2019-01-04T05:00:38.114Z,2.4
2019-01-04T05:01:31.065Z,2.4
2019-01-04T05:02:24.032Z,2.4
2019-01-04T05:03:16.997Z,2.4
2019-01-04T05:04:09.936Z,2.4
2019-01-04T05:05:02.918Z,2.4
2019-01-04T05:05:55.906Z,2.4
2019-01-04T05:06:48.916Z,2.4
2019-01-04T05:07:41.866Z,2.4
2019-01-04T05:08:34.755Z,2.4
2019-01-04T05:09:27.624Z,2.4
2019-01-04T05:10:20.587Z,2.4
2019-01-04T05:11:13.455Z,2.4
2019-01-04T05:12:06.412Z,2.4
2019-01-04T05:12:59.298Z,2.4
2019-01-04T05:13:52.197Z,2.4
2019-01-04T05:14:45.218Z,2.4
2019-01-04T05:15:38.274Z,2.4
2019-01-04T05:16:31.142Z,2.3
2019-01-04T05:17:24.156Z,2.4
2019-01-04T05:18:17.060Z,2.4
2019-01-04T05:19:09.939Z,2.4
2019-01-04T05:20:02.831Z,2.4
2019-01-04T05:20:55.772Z,2.4
2019-01-04T05:21:48.738Z,2.4
2019-01-04T05:22:41.689Z,2.3
2019-01-04T05:23:34.692Z,2.4
2019-01-04T05:24:27.694Z,2.4
2019-01-04T05:25:20.573Z,2.3
2019-01-04T05:26:13.540Z,2.4
2019-01-04T05:27:06.414Z,2.4
2019-01-04T05:27:59.359Z,2.4
2019-01-04T05:28:52.263Z,2.3
2019-01-04T05:29:45.206Z,2.3
2019-01-04T05:30:38.092Z,2.4
2019-01-04T05:31:30.977Z,2.4
2019-01-04T05:32:23.858Z,2.4
2019-01-04T05:33:16.766Z,2.4
2019-01-04T05:34:09.697Z,2.4
2019-01-04T05:35:02.591Z,2.3
2019-01-04T05:35:55.542Z,2.4
2019-01-04T05:36:48.427Z,2.4
2019-01-04T05:37:41.448Z,2.4
2019-01-04T05:38:34.416Z,2.4
2019-01-04T05:39:27.378Z,2.4
2019-01-04T05:40:20.261Z,2.4
2019-01-04T05:41:13.159Z,2.4
2019-01-04T05:42:06.103Z,2.3
2019-01-04T05:42:58.988Z,2.3
2019-01-04T05:43:51.967Z,2.4
2019-01-04T05:44:44.911Z,2.3
2019-01-04T05:45:37.955Z,2.3
2019-01-04T05:46:30.904Z,2.4
2019-01-04T05:47:24.172Z,2.3
2019-01-04T05:48:18.033Z,2.4
2019-01-04T05:49:11.019Z,2.4
2019-01-04T05:50:03.916Z,2.4
2019-01-04T05:50:57.064Z,2.4
2019-01-04T05:51:50.725Z,2.3
2019-01-04T05:52:43.738Z,2.3
2019-01-04T05:53:36.652Z,2.4
2019-01-04T05:54:29.698Z,2.3
2019-01-04T05:55:22.652Z,2.4
2019-01-04T05:56:15.616Z,2.4
2019-01-04T05:57:08.580Z,2.4
2019-01-04T05:58:01.620Z,2.4
2019-01-04T05:58:54.574Z,2.4
2019-01-04T05:59:47.527Z,2.4
2019-01-04T06:00:40.499Z,2.4
2019-01-04T06:01:33.388Z,2.3
2019-01-04T06:02:26.414Z,2.4
2019-01-04T06:03:24.406Z,2.4
2019-01-04T06:04:17.382Z,2.4
2019-01-04T06:05:10.288Z,2.4
2019-01-04T06:06:03.306Z,2.4
2019-01-04T06:06:56.155Z,2.4
2019-01-04T06:07:49.066Z,2.4
2019-01-04T06:08:41.936Z,2.4
2019-01-04T06:09:34.811Z,2.4
2019-01-04T06:10:27.714Z,2.4
2019-01-04T06:11:20.662Z,2.4
2019-01-04T06:12:13.541Z,2.4
2019-01-04T06:13:06.489Z,2.4
2019-01-04T06:13:59.458Z,2.4
2019-01-04T06:14:53.630Z,2.3
2019-01-04T06:15:46.618Z,2.4
2019-01-04T06:16:39.633Z,2.4
2019-01-04T06:17:32.590Z,2.4
2019-01-04T06:18:25.562Z,2.4
2019-01-04T06:19:18.506Z,2.5
2019-01-04T06:20:11.375Z,2.4
2019-01-04T06:21:04.335Z,2.4
2019-01-04T06:21:57.214Z,2.4
2019-01-04T06:22:51.122Z,2.4
2019-01-04T06:23:44.408Z,2.4
2019-01-04T06:24:38.642Z,2.4
2019-01-04T06:25:31.534Z,2.4
2019-01-04T06:26:24.437Z,2.4
2019-01-04T06:27:17.371Z,2.4
2019-01-04T06:28:10.262Z,2.4
2019-01-04T06:29:03.132Z,2.4
2019-01-04T06:29:56.119Z,2.4
2019-01-04T06:30:49.096Z,2.4
2019-01-04T06:31:42.094Z,2.4
2019-01-04T06:32:34.984Z,2.4
2019-01-04T06:33:27.944Z,2.4
2019-01-04T06:34:21.694Z,2.4
2019-01-04T06:35:14.731Z,2.4
2019-01-04T06:36:07.616Z,2.3
2019-01-04T06:37:00.552Z,2.4
2019-01-04T06:37:53.472Z,2.4
2019-01-04T06:38:46.496Z,2.4
2019-01-04T06:39:39.378Z,2.4
2019-01-04T06:40:32.332Z,2.4
2019-01-04T06:41:25.299Z,2.4
2019-01-04T06:42:18.309Z,2.4
2019-01-04T06:43:11.300Z,2.4
2019-01-04T06:44:04.341Z,2.3
2019-01-04T06:44:57.722Z,2.4
2019-01-04T06:45:50.644Z,2.4
2019-01-04T06:46:43.707Z,2.3
2019-01-04T06:47:36.678Z,2.4
2019-01-04T06:48:29.612Z,2.4
2019-01-04T06:49:22.497Z,2.4
2019-01-04T06:50:15.393Z,2.4
2019-01-04T06:51:08.337Z,2.4
2019-01-04T06:52:01.304Z,2.4
2019-01-04T06:52:54.300Z,2.3
2019-01-04T06:53:47.228Z,2.3
2019-01-04T06:54:40.182Z,2.3
2019-01-04T06:55:33.132Z,2.3
2019-01-04T06:56:26.036Z,2.3
2019-01-04T06:57:18.995Z,2.3
2019-01-04T06:58:11.924Z,2.4
2019-01-04T06:59:04.820Z,2.4
2019-01-04T06:59:57.704Z,2.4
2019-01-04T07:00:50.558Z,2.4
2019-01-04T07:01:43.455Z,2.4
2019-01-04T07:02:36.344Z,2.4
2019-01-04T07:03:29.466Z,2.5
2019-01-04T07:04:22.352Z,2.5
2019-01-04T07:05:15.231Z,2.4
2019-01-04T07:06:08.088Z,2.5
2019-01-04T07:07:01.058Z,2.4
2019-01-04T07:07:53.936Z,2.4
2019-01-04T07:08:46.906Z,2.5
2019-01-04T07:09:39.772Z,2.4
2019-01-04T07:10:32.664Z,2.4
2019-01-04T07:11:25.546Z,2.4
2019-01-04T07:12:18.500Z,2.4
2019-01-04T07:13:11.372Z,2.4
2019-01-04T07:14:04.321Z,2.3
2019-01-04T07:14:57.244Z,2.4
2019-01-04T07:15:50.175Z,2.4
2019-01-04T07:16:43.066Z,2.4
2019-01-04T07:17:36.089Z,2.4
2019-01-04T07:18:29.207Z,2.4
2019-01-04T07:19:22.267Z,2.4
2019-01-04T07:20:15.136Z,2.4
2019-01-04T07:21:08.014Z,2.4
2019-01-04T07:22:00.895Z,2.4
2019-01-04T07:22:53.836Z,2.4
2019-01-04T07:23:46.747Z,2.4
2019-01-04T07:24:39.752Z,2.4
2019-01-04T07:25:32.644Z,2.4
2019-01-04T07:26:25.562Z,2.4
2019-01-04T07:27:18.500Z,2.4
2019-01-04T07:28:11.400Z,2.4
2019-01-04T07:29:04.273Z,2.3
2019-01-04T07:29:57.382Z,2.4
2019-01-04T07:30:50.244Z,2.4
2019-01-04T07:31:43.277Z,2.4
2019-01-04T07:32:36.454Z,2.4
2019-01-04T07:33:29.554Z,2.4
2019-01-04T07:34:22.530Z,2.4
2019-01-04T07:35:15.747Z,2.4
2019-01-04T07:36:08.645Z,2.4
2019-01-04T07:37:01.623Z,2.4
2019-01-04T07:37:54.584Z,2.4
2019-01-04T07:38:47.526Z,2.5
2019-01-04T07:39:40.405Z,2.5
2019-01-04T07:40:33.326Z,2.4
2019-01-04T07:41:26.239Z,2.5
2019-01-04T07:42:19.126Z,2.5
2019-01-04T07:43:16.400Z,2.3
2019-01-04T07:44:09.458Z,2.4
2019-01-04T07:45:02.345Z,2.5
2019-01-04T07:45:55.275Z,2.5
2019-01-04T07:46:48.262Z,2.4
2019-01-04T07:47:41.144Z,2.5
2019-01-04T07:48:34.005Z,2.5
2019-01-04T07:49:26.901Z,2.5
2019-01-04T07:50:19.757Z,2.5
2019-01-04T07:51:12.682Z,2.5
2019-01-04T07:52:05.628Z,2.5
2019-01-04T07:52:58.653Z,2.4
2019-01-04T07:53:51.541Z,2.6
2019-01-04T07:54:44.415Z,2.6
2019-01-04T07:55:37.292Z,2.6
2019-01-04T07:56:30.224Z,2.6
2019-01-04T07:57:23.144Z,2.6
2019-01-04T07:58:16.002Z,2.6
2019-01-04T07:59:08.889Z,2.6
2019-01-04T08:00:01.780Z,2.6
2019-01-04T08:00:54.751Z,2.6
2019-01-04T08:01:47.640Z,2.6
2019-01-04T08:02:40.575Z,2.7
2019-01-04T08:03:33.459Z,2.7
2019-01-04T08:04:26.410Z,2.7
2019-01-04T08:05:19.292Z,2.7
2019-01-04T08:06:12.175Z,2.7
2019-01-04T08:07:05.112Z,2.8
2019-01-04T08:07:58.011Z,2.8
2019-01-04T08:08:52.497Z,2.8
2019-01-04T08:09:45.439Z,2.8
2019-01-04T08:10:38.325Z,2.8
2019-01-04T08:11:31.214Z,2.8
2019-01-04T08:12:24.112Z,2.8
2019-01-04T08:13:17.004Z,2.8
2019-01-04T08:14:09.939Z,2.9
2019-01-04T08:15:02.809Z,2.9
2019-01-04T08:15:55.711Z,2.9
2019-01-04T08:16:48.584Z,2.8
2019-01-04T08:17:41.686Z,2.7
2019-01-04T08:18:35.405Z,2.9
2019-01-04T08:19:28.270Z,2.9
2019-01-04T08:20:21.124Z,2.9
2019-01-04T08:21:14.017Z,2.9
2019-01-04T08:22:06.893Z,2.9
2019-01-04T08:22:59.794Z,3
2019-01-04T08:23:52.650Z,3
2019-01-04T08:24:45.638Z,3
2019-01-04T08:25:38.568Z,3
2019-01-04T08:26:31.466Z,3
2019-01-04T08:27:24.343Z,3
2019-01-04T08:28:17.342Z,3
2019-01-04T08:29:10.803Z,3
2019-01-04T08:30:03.794Z,3
2019-01-04T08:30:56.653Z,3
2019-01-04T08:31:49.526Z,3
2019-01-04T08:32:42.422Z,3
2019-01-04T08:33:35.321Z,3
2019-01-04T08:34:28.200Z,3.1
2019-01-04T08:35:21.145Z,3.1
2019-01-04T08:36:14.018Z,3.1
2019-01-04T08:37:06.904Z,3.1
2019-01-04T08:37:59.790Z,3.1
2019-01-04T08:38:52.722Z,3.1
2019-01-04T08:39:45.763Z,3.1
2019-01-04T08:40:38.743Z,3.1
2019-01-04T08:41:31.685Z,3.2
2019-01-04T08:42:24.575Z,3.2
2019-01-04T08:43:17.569Z,3.2
2019-01-04T08:44:10.516Z,3.2
2019-01-04T08:45:03.380Z,3.2
2019-01-04T08:45:56.444Z,3.2
2019-01-04T08:46:49.378Z,3.3
2019-01-04T08:47:42.345Z,3.3
2019-01-04T08:48:35.216Z,3.2
2019-01-04T08:49:28.145Z,3.3
2019-01-04T08:50:21.052Z,3.4
2019-01-04T08:51:13.954Z,3.4
2019-01-04T08:52:06.807Z,3.4
2019-01-04T08:52:59.692Z,3.4
2019-01-04T08:53:52.579Z,3.4
2019-01-04T08:54:45.552Z,3.5
2019-01-04T08:55:38.495Z,3.4
2019-01-04T08:56:31.379Z,3.5
2019-01-04T08:57:24.271Z,3.5
2019-01-04T08:58:17.226Z,3.5
2019-01-04T08:59:10.087Z,3.6
2019-01-04T09:00:03.042Z,3.5
2019-01-04T09:00:56.010Z,3.6
2019-01-04T09:01:48.907Z,3.6
2019-01-04T09:02:41.834Z,3.6
2019-01-04T09:03:34.729Z,3.6
2019-01-04T09:04:27.625Z,3.6
2019-01-04T09:05:20.520Z,3.6
2019-01-04T09:06:13.449Z,3.7
2019-01-04T09:07:06.335Z,3.7
2019-01-04T09:07:59.215Z,3.7
2019-01-04T09:08:52.118Z,3.7
2019-01-04T09:09:45.073Z,3.7
2019-01-04T09:10:38.017Z,3.7
2019-01-04T09:11:30.892Z,3.7
2019-01-04T09:12:23.773Z,3.7
2019-01-04T09:13:16.663Z,3.7
2019-01-04T09:14:09.559Z,3.8
2019-01-04T09:15:02.504Z,3.7
2019-01-04T09:15:55.484Z,3.8
2019-01-04T09:16:48.412Z,3.8
2019-01-04T09:17:41.298Z,3.8
2019-01-04T09:18:34.199Z,3.8
2019-01-04T09:19:28.104Z,3.8
2019-01-04T09:20:21.051Z,3.8
2019-01-04T09:21:13.972Z,3.8
2019-01-04T09:22:06.896Z,3.8
2019-01-04T09:22:59.779Z,3.9
2019-01-04T09:23:52.672Z,3.9
2019-01-04T09:24:45.610Z,3.9
2019-01-04T09:25:38.496Z,3.9
2019-01-04T09:26:31.400Z,3.9
2019-01-04T09:27:24.346Z,4
2019-01-04T09:28:18.057Z,4
2019-01-04T09:29:11.141Z,4
2019-01-04T09:30:04.025Z,4
2019-01-04T09:30:56.993Z,4
2019-01-04T09:31:49.992Z,4
2019-01-04T09:32:42.920Z,4.1
2019-01-04T09:33:35.854Z,4.1
2019-01-04T09:34:28.736Z,4.1
2019-01-04T09:35:21.619Z,4.1
2019-01-04T09:36:14.529Z,4.1
2019-01-04T09:37:07.534Z,4.1
2019-01-04T09:38:00.448Z,4.1
2019-01-04T09:38:53.382Z,4.1
2019-01-04T09:39:46.342Z,4.1
2019-01-04T09:40:40.183Z,4
2019-01-04T09:41:33.351Z,4.1
2019-01-04T09:42:26.410Z,4.1
2019-01-04T09:43:19.311Z,4.1
2019-01-04T09:44:12.182Z,4.1
2019-01-04T09:45:05.072Z,4.1
2019-01-04T09:45:58.039Z,4.1
2019-01-04T09:46:51.273Z,4.1
2019-01-04T09:47:44.258Z,4.1
2019-01-04T09:48:37.180Z,4.1
2019-01-04T09:49:30.099Z,4.2
2019-01-04T09:50:22.991Z,4.2
2019-01-04T09:51:15.874Z,4.1
2019-01-04T09:52:08.752Z,4.2
2019-01-04T09:53:01.718Z,4.2
2019-01-04T09:53:54.665Z,4.2
2019-01-04T09:54:47.576Z,4.2
2019-01-04T09:55:40.510Z,4.2
2019-01-04T09:56:33.383Z,4.2
2019-01-04T09:57:26.367Z,4.2
2019-01-04T09:58:19.298Z,4.2
2019-01-04T09:59:12.193Z,4.2
2019-01-04T10:00:05.047Z,4.2
2019-01-04T10:00:57.938Z,4.3
2019-01-04T10:01:52.252Z,4.3
2019-01-04T10:02:45.326Z,4.3
2019-01-04T10:03:38.274Z,4.2
2019-01-04T10:04:31.136Z,4.3
2019-01-04T10:05:24.019Z,4.3
2019-01-04T10:06:16.971Z,4.3
2019-01-04T10:07:09.853Z,4.3
2019-01-04T10:08:02.768Z,4.2
2019-01-04T10:08:55.688Z,4.3
2019-01-04T10:09:48.656Z,4.3
2019-01-04T10:10:41.543Z,4.3
2019-01-04T10:11:34.424Z,4.4
2019-01-04T10:12:27.307Z,4.4
2019-01-04T10:13:20.232Z,4.4
2019-01-04T10:14:13.155Z,4.4
2019-01-04T10:15:06.100Z,4.4
2019-01-04T10:15:59.040Z,4.4
2019-01-04T10:16:51.940Z,4.4
2019-01-04T10:17:44.890Z,4.3
2019-01-04T10:18:38.854Z,4.5
2019-01-04T10:19:31.772Z,4.5
2019-01-04T10:20:24.666Z,4.5
2019-01-04T10:21:18.724Z,4.5
2019-01-04T10:22:11.634Z,4.6
2019-01-04T10:23:04.500Z,4.6
2019-01-04T10:23:57.604Z,4.6
2019-01-04T10:24:50.548Z,4.6
2019-01-04T10:25:43.625Z,4.5
2019-01-04T10:26:37.375Z,4.7
2019-01-04T10:27:30.270Z,4.7
2019-01-04T10:28:23.376Z,4.6
2019-01-04T10:29:16.286Z,4.7
2019-01-04T10:30:09.215Z,4.7
2019-01-04T10:31:02.196Z,4.7
2019-01-04T10:31:55.697Z,4.7
2019-01-04T10:32:48.549Z,4.7
2019-01-04T10:33:41.538Z,4.7
2019-01-04T10:34:34.474Z,4.7
2019-01-04T10:35:28.647Z,4.7
2019-01-04T10:36:26.610Z,4.8
2019-01-04T10:37:19.536Z,4.8
2019-01-04T10:38:12.417Z,4.8
2019-01-04T10:39:05.349Z,4.7
2019-01-04T10:39:58.986Z,4.7
2019-01-04T10:40:52.084Z,4.7
2019-01-04T10:41:45.316Z,4.7
2019-01-04T10:42:38.261Z,4.8
2019-01-04T10:43:31.474Z,4.8
2019-01-04T10:44:25.535Z,4.8
2019-01-04T10:45:18.637Z,4.8
2019-01-04T10:46:11.725Z,4.9
2019-01-04T10:47:04.657Z,4.9
2019-01-04T10:47:57.625Z,4.9
2019-01-04T10:48:50.568Z,4.9
2019-01-04T10:49:43.469Z,4.9
2019-01-04T10:50:36.388Z,4.9
2019-01-04T10:51:29.314Z,4.9
2019-01-04T10:52:22.260Z,5
2019-01-04T10:53:16.428Z,5
2019-01-04T10:54:09.378Z,5
2019-01-04T10:55:02.335Z,5
2019-01-04T10:55:55.254Z,4.9
2019-01-04T10:56:48.182Z,5
2019-01-04T10:57:41.049Z,5.1
2019-01-04T10:58:34.013Z,5.1
2019-01-04T10:59:26.902Z,5.1
2019-01-04T11:00:19.768Z,5.1
2019-01-04T11:01:12.678Z,5.1
2019-01-04T11:02:05.611Z,5.1
2019-01-04T11:02:58.502Z,5.1
2019-01-04T11:03:51.464Z,5.1
2019-01-04T11:04:44.329Z,5.1
2019-01-04T11:05:37.208Z,5.1
2019-01-04T11:06:30.228Z,5.1
2019-01-04T11:07:23.136Z,5.2
2019-01-04T11:08:16.027Z,5.2
2019-01-04T11:09:08.898Z,5.2
2019-01-04T11:10:01.780Z,5.1
2019-01-04T11:10:54.737Z,5.1
2019-01-04T11:11:47.634Z,5.1
2019-01-04T11:12:40.631Z,5.1
2019-01-04T11:13:33.565Z,5.1
2019-01-04T11:14:26.420Z,5.1
2019-01-04T11:15:24.429Z,5.1
2019-01-04T11:16:17.378Z,5.1
2019-01-04T11:17:10.504Z,5.1
2019-01-04T11:18:03.458Z,5.1
2019-01-04T11:19:02.671Z,5.1
2019-01-04T11:19:55.518Z,5.1
2019-01-04T11:20:48.415Z,5.1
2019-01-04T11:21:41.288Z,5.1
2019-01-04T11:22:34.293Z,5
2019-01-04T11:23:27.211Z,5.1
2019-01-04T11:24:20.106Z,5.1
2019-01-04T11:25:12.976Z,5
2019-01-04T11:26:05.877Z,5
2019-01-04T11:26:58.814Z,5
2019-01-04T11:27:51.867Z,5
2019-01-04T11:28:44.819Z,5
2019-01-04T11:29:37.757Z,5
2019-01-04T11:30:30.683Z,5
2019-01-04T11:31:23.618Z,5
2019-01-04T11:32:16.492Z,5
2019-01-04T11:33:09.478Z,4.9
2019-01-04T11:34:02.410Z,5
2019-01-04T11:34:55.300Z,5
2019-01-04T11:35:48.187Z,5
2019-01-04T11:36:41.075Z,5
2019-01-04T11:37:33.934Z,5
2019-01-04T11:38:26.885Z,5
2019-01-04T11:39:21.193Z,5
2019-01-04T11:40:14.102Z,4.9
2019-01-04T11:41:06.967Z,5
2019-01-04T11:41:59.872Z,4.9
2019-01-04T11:42:52.744Z,5
2019-01-04T11:43:45.871Z,4.9
2019-01-04T11:44:38.752Z,4.9
2019-01-04T11:45:31.628Z,4.9
2019-01-04T11:46:24.553Z,4.9
2019-01-04T11:47:19.946Z,4.9
2019-01-04T11:48:13.136Z,4.9
2019-01-04T11:49:05.997Z,4.9
2019-01-04T11:49:58.920Z,4.9
2019-01-04T11:50:51.946Z,4.9
2019-01-04T11:51:44.896Z,4.9
2019-01-04T11:52:37.933Z,4.9
2019-01-04T11:53:30.833Z,4.9
2019-01-04T11:54:23.729Z,4.9
2019-01-04T11:55:16.652Z,4.9
2019-01-04T11:56:09.633Z,4.9
2019-01-04T11:57:02.591Z,4.9
2019-01-04T11:57:55.552Z,4.9
2019-01-04T11:58:48.666Z,4.9
2019-01-04T11:59:41.563Z,4.9
2019-01-04T12:00:34.494Z,4.9
2019-01-04T12:01:27.374Z,4.9
2019-01-04T12:02:26.108Z,4.9
2019-01-04T12:03:19.443Z,4.9
2019-01-04T12:04:12.413Z,4.8
2019-01-04T12:05:05.330Z,4.9
2019-01-04T12:05:58.243Z,4.9
2019-01-04T12:06:51.144Z,4.9
2019-01-04T12:07:44.014Z,4.9
2019-01-04T12:08:36.938Z,4.9
2019-01-04T12:09:29.851Z,4.8
2019-01-04T12:10:22.733Z,4.9
2019-01-04T12:11:15.696Z,4.9
2019-01-04T12:12:08.571Z,4.9
2019-01-04T12:13:01.473Z,4.8
2019-01-04T12:13:54.458Z,4.9
2019-01-04T12:14:47.373Z,4.9
2019-01-04T12:15:40.286Z,4.8
2019-01-04T12:16:33.226Z,4.8
2019-01-04T12:17:26.174Z,4.8